sensor_id;sensor_type;location;lat;lon;timestamp;pressure;altitude;pressure_sealevel;temperature;humidity
18765;BME280;9511;54.242;12.448;2023-04-01T03:04:29;99799.22;;;3.63;100.00
18765;BME280;9511;54.242;12.448;2023-04-01T03:06:56;99805.34;;;3.63;100.00
18765;BME280;9511;54.242;12.448;2023-04-01T03:09:23;99803.63;;;3.64;100.00
18765;BME280;9511;54.242;12.448;2023-04-01T03:11:51;99812.47;;;3.67;100.00
18765;BME280;9511;54.242;12.448;2023-04-01T03:14:18;99816.78;;;3.67;100.00
18765;BME280;9511;54.242;12.448;2023-04-01T03:16:45;99814.09;;;3.64;100.00
18765;BME280;9511;54.242;12.448;2023-04-01T03:19:13;99814.91;;;3.63;100.00
18765;BME280;9511;54.242;12.448;2023-04-01T03:21:42;99818.38;;;3.62;100.00
18765;BME280;9511;54.242;12.448;2023-04-01T03:24:09;99827.03;;;3.61;100.00
18765;BME280;9511;54.242;12.448;2023-04-01T03:26:39;99825.25;;;3.60;100.00
18765;BME280;9511;54.242;12.448;2023-04-01T03:29:07;99818.06;;;3.54;100.00
18765;BME280;9511;54.242;12.448;2023-04-01T03:31:34;99826.00;;;3.56;100.00
18765;BME280;9511;54.242;12.448;2023-04-01T03:34:01;99821.69;;;3.58;100.00
18765;BME280;9511;54.242;12.448;2023-04-01T03:36:28;99822.53;;;3.57;100.00
18765;BME280;9511;54.242;12.448;2023-04-01T03:38:57;99825.25;;;3.60;100.00
18765;BME280;9511;54.242;12.448;2023-04-01T03:41:35;99831.38;;;3.60;100.00
18765;BME280;9511;54.242;12.448;2023-04-01T03:44:03;99840.88;;;3.58;100.00
18765;BME280;9511;54.242;12.448;2023-04-01T03:46:30;99841.03;;;3.61;100.00
18765;BME280;9511;54.242;12.448;2023-04-01T03:48:57;99850.41;;;3.56;100.00
18765;BME280;9511;54.242;12.448;2023-04-01T03:51:24;99844.22;;;3.54;100.00
18765;BME280;9511;54.242;12.448;2023-04-01T03:53:52;99853.69;;;3.51;100.00
18765;BME280;9511;54.242;12.448;2023-04-01T03:56:20;99853.91;;;3.57;100.00
18765;BME280;9511;54.242;12.448;2023-04-01T03:58:47;99858.97;;;3.52;100.00
18765;BME280;9511;54.242;12.448;2023-04-01T04:01:20;99862.22;;;3.46;100.00
18765;BME280;9511;54.242;12.448;2023-04-01T04:03:49;99871.09;;;3.50;100.00
18765;BME280;9511;54.242;12.448;2023-04-01T04:06:18;99872.91;;;3.53;100.00
18765;BME280;9511;54.242;12.448;2023-04-01T04:08:47;99874.69;;;3.54;100.00
18765;BME280;9511;54.242;12.448;2023-04-01T04:11:15;99867.00;;;3.57;100.00
18765;BME280;9511;54.242;12.448;2023-04-01T04:13:45;99881.69;;;3.55;100.00
18765;BME280;9511;54.242;12.448;2023-04-01T04:16:16;99881.84;;;3.58;100.00
18765;BME280;9511;54.242;12.448;2023-04-01T04:18:48;99880.94;;;3.57;100.00
18765;BME280;9511;54.242;12.448;2023-04-01T04:21:17;99883.66;;;3.60;100.00
18765;BME280;9511;54.242;12.448;2023-04-01T04:23:44;99892.16;;;3.55;100.00
18765;BME280;9511;54.242;12.448;2023-04-01T04:26:14;99888.00;;;3.60;100.00
18765;BME280;9511;54.242;12.448;2023-04-01T04:28:46;99897.53;;;3.58;100.00
18765;BME280;9511;54.242;12.448;2023-04-01T04:31:18;99900.19;;;3.59;100.00
18765;BME280;9511;54.242;12.448;2023-04-01T04:33:45;99899.44;;;3.62;100.00
18765;BME280;9511;54.242;12.448;2023-04-01T04:36:14;99898.38;;;3.57;100.00
18765;BME280;9511;54.242;12.448;2023-04-01T04:38:42;99896.81;;;3.62;100.00
18765;BME280;9511;54.242;12.448;2023-04-01T04:41:10;99910.59;;;3.58;100.00
18765;BME280;9511;54.242;12.448;2023-04-01T04:43:39;99903.47;;;3.54;100.00
18765;BME280;9511;54.242;12.448;2023-04-01T04:46:08;99903.59;;;3.57;100.00
18765;BME280;9511;54.242;12.448;2023-04-01T04:48:36;99911.19;;;3.51;100.00
18765;BME280;9511;54.242;12.448;2023-04-01T04:51:04;99905.25;;;3.55;100.00
18765;BME280;9511;54.242;12.448;2023-04-01T04:53:31;99912.00;;;3.50;100.00
18765;BME280;9511;54.242;12.448;2023-04-01T04:55:58;99913.88;;;3.52;100.00
18765;BME280;9511;54.242;12.448;2023-04-01T04:58:37;99912.13;;;3.53;100.00
18765;BME280;9511;54.242;12.448;2023-04-01T05:01:08;99925.91;;;3.49;100.00
18765;BME280;9511;54.242;12.448;2023-04-01T05:03:37;99921.56;;;3.49;100.00
18765;BME280;9511;54.242;12.448;2023-04-01T05:06:07;99917.19;;;3.48;100.00
18765;BME280;9511;54.242;12.448;2023-04-01T05:08:35;99928.72;;;3.53;100.00
18765;BME280;9511;54.242;12.448;2023-04-01T05:11:02;99925.91;;;3.49;100.00
18765;BME280;9511;54.242;12.448;2023-04-01T05:13:32;99935.47;;;3.48;100.00
18765;BME280;9511;54.242;12.448;2023-04-01T05:15:59;99932.03;;;3.49;100.00
18765;BME280;9511;54.242;12.448;2023-04-01T05:18:28;99934.78;;;3.52;100.00
18765;BME280;9511;54.242;12.448;2023-04-01T05:20:55;99940.13;;;3.55;100.00
18765;BME280;9511;54.242;12.448;2023-04-01T05:23:22;99944.47;;;3.55;100.00
18765;BME280;9511;54.242;12.448;2023-04-01T05:25:50;99939.56;;;3.62;100.00
18765;BME280;9511;54.242;12.448;2023-04-01T05:28:19;99939.56;;;3.62;100.00
18765;BME280;9511;54.242;12.448;2023-04-01T05:30:47;99950.72;;;3.58;100.00
18765;BME280;9511;54.242;12.448;2023-04-01T05:33:25;99956.84;;;3.59;100.00
18765;BME280;9511;54.242;12.448;2023-04-01T05:35:54;99957.63;;;3.56;100.00
18765;BME280;9511;54.242;12.448;2023-04-01T05:38:22;99959.59;;;3.62;100.00
18765;BME280;9511;54.242;12.448;2023-04-01T05:40:49;99962.91;;;3.58;100.00
18765;BME280;9511;54.242;12.448;2023-04-01T05:43:17;99967.25;;;3.57;100.00
18765;BME280;9511;54.242;12.448;2023-04-01T05:45:48;99952.69;;;4.09;100.00
18765;BME280;9511;54.242;12.448;2023-04-01T05:48:38;99960.31;;;4.26;100.00
18765;BME280;9511;54.242;12.448;2023-04-01T05:51:12;99968.09;;;4.47;100.00
18765;BME280;9511;54.242;12.448;2023-04-01T05:53:40;99972.22;;;4.65;100.00
18765;BME280;9511;54.242;12.448;2023-04-01T05:56:07;99967.19;;;4.71;100.00
18765;BME280;9511;54.242;12.448;2023-04-01T05:58:39;99975.53;;;4.61;100.00
18765;BME280;9511;54.242;12.448;2023-04-01T06:01:10;99980.13;;;4.42;100.00
18765;BME280;9511;54.242;12.448;2023-04-01T06:03:37;99991.03;;;4.31;100.00
18765;BME280;9511;54.242;12.448;2023-04-01T06:06:12;99989.03;;;4.47;100.00
18765;BME280;9511;54.242;12.448;2023-04-01T06:08:41;99993.47;;;4.50;100.00
18765;BME280;9511;54.242;12.448;2023-04-01T06:11:18;99985.41;;;4.44;100.00
18765;BME280;9511;54.242;12.448;2023-04-01T06:14:16;100007.09;;;4.41;100.00
18765;BME280;9511;54.242;12.448;2023-04-01T06:16:57;100004.19;;;4.56;100.00
18765;BME280;9511;54.242;12.448;2023-04-01T06:19:36;100007.81;;;4.60;100.00
18765;BME280;9511;54.242;12.448;2023-04-01T06:22:26;100014.41;;;4.26;100.00
18765;BME280;9511;54.242;12.448;2023-04-01T06:25:17;100019.69;;;4.05;100.00
18765;BME280;9511;54.242;12.448;2023-04-01T06:27:58;100027.91;;;3.92;100.00
18765;BME280;9511;54.242;12.448;2023-04-01T06:30:33;100037.09;;;3.82;100.00
18765;BME280;9511;54.242;12.448;2023-04-01T06:33:20;100039.28;;;3.71;100.00
18765;BME280;9511;54.242;12.448;2023-04-01T06:39:05;100038.38;;;3.71;100.00
18765;BME280;9511;54.242;12.448;2023-04-01T06:41:49;100048.75;;;3.68;100.00
18765;BME280;9511;54.242;12.448;2023-04-01T06:44:33;100058.06;;;3.61;100.00
18765;BME280;9511;54.242;12.448;2023-04-01T06:47:30;100055.31;;;3.58;100.00
18765;BME280;9511;54.242;12.448;2023-04-01T06:50:23;100054.41;;;3.58;100.00
18765;BME280;9511;54.242;12.448;2023-04-01T06:53:20;100063.16;;;3.58;100.00
18765;BME280;9511;54.242;12.448;2023-04-01T06:56:10;100062.75;;;3.49;100.00
18765;BME280;9511;54.242;12.448;2023-04-01T06:58:53;100062.13;;;3.55;100.00
18765;BME280;9511;54.242;12.448;2023-04-01T07:01:23;100063.75;;;3.51;100.00
18765;BME280;9511;54.242;12.448;2023-04-01T07:03:54;100065.47;;;3.51;100.00
18765;BME280;9511;54.242;12.448;2023-04-01T07:06:29;100077.00;;;3.56;100.00
18765;BME280;9511;54.242;12.448;2023-04-01T07:09:00;100073.16;;;3.47;100.00
18765;BME280;9511;54.242;12.448;2023-04-01T07:11:53;100074.94;;;3.49;100.00
18765;BME280;9511;54.242;12.448;2023-04-01T07:14:43;100074.09;;;3.50;100.00
18765;BME280;9511;54.242;12.448;2023-04-01T07:17:15;100083.69;;;3.49;100.00
18765;BME280;9511;54.242;12.448;2023-04-01T07:19:45;100074.06;;;3.48;100.00
18765;BME280;9511;54.242;12.448;2023-04-01T07:22:23;100085.34;;;3.47;100.00
18765;BME280;9511;54.242;12.448;2023-04-01T07:25:20;100090.81;;;3.53;100.00
18765;BME280;9511;54.242;12.448;2023-04-01T07:28:02;100109.28;;;3.56;100.00
18765;BME280;9511;54.242;12.448;2023-04-01T07:30:40;100110.59;;;3.46;100.00
18765;BME280;9511;54.242;12.448;2023-04-01T07:33:15;100103.00;;;3.53;100.00
18765;BME280;9511;54.242;12.448;2023-04-01T07:35:47;100115.69;;;3.43;100.00
18765;BME280;9511;54.242;12.448;2023-04-01T07:38:26;100122.72;;;3.44;100.00
18765;BME280;9511;54.242;12.448;2023-04-01T07:41:09;100125.19;;;3.41;100.00
18765;BME280;9511;54.242;12.448;2023-04-01T07:43:50;100122.88;;;3.28;100.00
18765;BME280;9511;54.242;12.448;2023-04-01T07:46:52;100109.09;;;3.32;100.00
18765;BME280;9511;54.242;12.448;2023-04-01T07:49:28;100123.97;;;3.33;100.00
18765;BME280;9511;54.242;12.448;2023-04-01T07:52:00;100122.31;;;3.35;100.00
18765;BME280;9511;54.242;12.448;2023-04-01T07:54:40;100139.41;;;3.27;100.00
18765;BME280;9511;54.242;12.448;2023-04-01T07:57:15;100136.63;;;3.24;100.00
18765;BME280;9511;54.242;12.448;2023-04-01T07:59:58;100139.19;;;3.23;100.00
18765;BME280;9511;54.242;12.448;2023-04-01T08:02:54;100156.66;;;3.24;100.00
18765;BME280;9511;54.242;12.448;2023-04-01T08:05:29;100152.09;;;3.19;100.00
18765;BME280;9511;54.242;12.448;2023-04-01T08:08:05;100154.78;;;3.21;100.00
18765;BME280;9511;54.242;12.448;2023-04-01T08:11:25;100164.44;;;3.22;100.00
18765;BME280;9511;54.242;12.448;2023-04-01T08:14:20;100167.31;;;3.28;100.00
18765;BME280;9511;54.242;12.448;2023-04-01T08:17:18;100179.66;;;3.32;100.00
18765;BME280;9511;54.242;12.448;2023-04-01T08:19:59;100173.50;;;3.30;100.00
18765;BME280;9511;54.242;12.448;2023-04-01T08:22:36;100185.88;;;3.34;100.00
18765;BME280;9511;54.242;12.448;2023-04-01T08:25:18;100185.94;;;3.36;100.00
18765;BME280;9511;54.242;12.448;2023-04-01T08:27:49;100189.22;;;3.32;100.00
18765;BME280;9511;54.242;12.448;2023-04-01T08:30:20;100192.69;;;3.31;100.00
18765;BME280;9511;54.242;12.448;2023-04-01T08:32:54;100208.50;;;3.34;100.00
18765;BME280;9511;54.242;12.448;2023-04-01T08:35:29;100205.00;;;3.33;100.00
18765;BME280;9511;54.242;12.448;2023-04-01T08:38:01;100211.19;;;3.35;100.00
18765;BME280;9511;54.242;12.448;2023-04-01T08:40:54;100204.56;;;3.43;100.00
18765;BME280;9511;54.242;12.448;2023-04-01T08:43:36;100213.31;;;3.44;100.00
18765;BME280;9511;54.242;12.448;2023-04-01T08:46:29;100213.44;;;3.47;100.00
18765;BME280;9511;54.242;12.448;2023-04-01T08:49:17;100226.78;;;3.53;100.00
18765;BME280;9511;54.242;12.448;2023-04-01T08:52:05;100225.75;;;3.50;100.00
18765;BME280;9511;54.242;12.448;2023-04-01T08:54:46;100223.13;;;3.50;100.00
18765;BME280;9511;54.242;12.448;2023-04-01T08:57:28;100222.13;;;3.46;100.00
18765;BME280;9511;54.242;12.448;2023-04-01T09:00:29;100231.31;;;3.38;100.00
18765;BME280;9511;54.242;12.448;2023-04-01T09:03:25;100240.78;;;3.34;100.00
18765;BME280;9511;54.242;12.448;2023-04-01T09:06:24;100248.47;;;3.31;100.00
18765;BME280;9511;54.242;12.448;2023-04-01T09:12:06;100241.88;;;3.39;100.00
18765;BME280;9511;54.242;12.448;2023-04-01T09:14:53;100246.06;;;3.36;100.00
18765;BME280;9511;54.242;12.448;2023-04-01T09:17:55;100260.31;;;3.42;100.00
18765;BME280;9511;54.242;12.448;2023-04-01T09:20:43;100253.44;;;3.44;100.00
18765;BME280;9511;54.242;12.448;2023-04-01T09:23:29;100261.34;;;3.46;100.00
18765;BME280;9511;54.242;12.448;2023-04-01T09:26:08;100265.19;;;3.54;100.00
18765;BME280;9511;54.242;12.448;2023-04-01T09:28:45;100273.38;;;3.42;100.00
18765;BME280;9511;54.242;12.448;2023-04-01T09:31:25;100274.38;;;3.44;100.00
18765;BME280;9511;54.242;12.448;2023-04-01T09:34:30;100272.53;;;3.43;100.00
18765;BME280;9511;54.242;12.448;2023-04-01T09:37:18;100283.28;;;3.50;100.00
18765;BME280;9511;54.242;12.448;2023-04-01T09:40:02;100284.81;;;3.44;100.00
18765;BME280;9511;54.242;12.448;2023-04-01T09:42:49;100292.56;;;3.43;100.00
18765;BME280;9511;54.242;12.448;2023-04-01T09:45:40;100277.09;;;3.47;100.00
18765;BME280;9511;54.242;12.448;2023-04-01T09:48:19;100297.19;;;3.49;100.00
18765;BME280;9511;54.242;12.448;2023-04-01T09:50:54;100308.19;;;3.61;100.00
18765;BME280;9511;54.242;12.448;2023-04-01T09:53:41;100302.28;;;3.65;100.00
18765;BME280;9511;54.242;12.448;2023-04-01T09:56:56;100311.53;;;3.57;100.00
18765;BME280;9511;54.242;12.448;2023-04-01T09:59:54;100319.66;;;3.63;100.00
18765;BME280;9511;54.242;12.448;2023-04-01T10:03:19;100317.91;;;3.63;100.00
18765;BME280;9511;54.242;12.448;2023-04-01T10:06:38;100314.34;;;3.61;100.00
18765;BME280;9511;54.242;12.448;2023-04-01T10:09:58;100334.34;;;3.61;100.00
18765;BME280;9511;54.242;12.448;2023-04-01T10:19:35;100341.78;;;3.71;100.00
18765;BME280;9511;54.242;12.448;2023-04-01T10:22:35;100338.34;;;3.72;100.00
18765;BME280;9511;54.242;12.448;2023-04-01T10:25:19;100343.25;;;3.84;100.00
18765;BME280;9511;54.242;12.448;2023-04-01T10:28:13;100343.50;;;3.90;100.00
18765;BME280;9511;54.242;12.448;2023-04-01T10:37:43;100340.72;;;3.85;100.00
18765;BME280;9511;54.242;12.448;2023-04-01T10:40:34;100347.59;;;4.03;99.92
18765;BME280;9511;54.242;12.448;2023-04-01T10:43:46;100346.78;;;3.84;99.17
18765;BME280;9511;54.242;12.448;2023-04-01T10:46:52;100359.38;;;3.93;99.15
18765;BME280;9511;54.242;12.448;2023-04-01T10:49:41;100356.34;;;4.03;99.41
18765;BME280;9511;54.242;12.448;2023-04-01T10:52:33;100371.97;;;4.02;99.27
18765;BME280;9511;54.242;12.448;2023-04-01T10:59:15;100356.41;;;3.85;97.96
18765;BME280;9511;54.242;12.448;2023-04-01T11:05:40;100375.41;;;3.81;97.89
18765;BME280;9511;54.242;12.448;2023-04-01T11:11:52;100384.91;;;3.98;97.73
18765;BME280;9511;54.242;12.448;2023-04-01T11:18:04;100381.88;;;3.89;97.01
18765;BME280;9511;54.242;12.448;2023-04-01T11:21:02;100389.31;;;3.99;97.14
18765;BME280;9511;54.242;12.448;2023-04-01T11:23:45;100399.72;;;3.98;96.74
18765;BME280;9511;54.242;12.448;2023-04-01T11:26:29;100400.78;;;4.02;96.70
18765;BME280;9511;54.242;12.448;2023-04-01T11:29:41;100409.63;;;4.05;96.28
18765;BME280;9511;54.242;12.448;2023-04-01T11:32:39;100409.50;;;4.02;96.13
18765;BME280;9511;54.242;12.448;2023-04-01T11:38:26;100417.47;;;4.05;95.13
18765;BME280;9511;54.242;12.448;2023-04-01T11:41:00;100420.72;;;3.99;95.16
18765;BME280;9511;54.242;12.448;2023-04-01T11:44:14;100421.41;;;3.95;94.54
18765;BME280;9511;54.242;12.448;2023-04-01T11:47:18;100418.09;;;3.99;94.93
18765;BME280;9511;54.242;12.448;2023-04-01T11:50:03;100425.22;;;4.02;95.07
18765;BME280;9511;54.242;12.448;2023-04-01T11:52:56;100436.41;;;3.99;94.57
18765;BME280;9511;54.242;12.448;2023-04-01T11:55:33;100429.06;;;3.91;93.81
18765;BME280;9511;54.242;12.448;2023-04-01T11:58:23;100437.81;;;3.91;94.13
18765;BME280;9511;54.242;12.448;2023-04-01T12:04:06;100452.34;;;4.04;94.18
18765;BME280;9511;54.242;12.448;2023-04-01T12:06:44;100448.84;;;4.04;93.74
18765;BME280;9511;54.242;12.448;2023-04-01T12:09:22;100459.97;;;3.99;93.40
18765;BME280;9511;54.242;12.448;2023-04-01T12:12:00;100464.94;;;3.93;93.28
18765;BME280;9511;54.242;12.448;2023-04-01T12:14:37;100465.59;;;4.07;93.69
18765;BME280;9511;54.242;12.448;2023-04-01T12:17:13;100464.59;;;4.05;93.41
18765;BME280;9511;54.242;12.448;2023-04-01T12:19:51;100479.56;;;4.08;93.24
18765;BME280;9511;54.242;12.448;2023-04-01T12:22:30;100470.88;;;4.09;93.03
18765;BME280;9511;54.242;12.448;2023-04-01T12:25:14;100481.34;;;4.09;92.68
18765;BME280;9511;54.242;12.448;2023-04-01T12:27:53;100480.81;;;4.16;92.30
18765;BME280;9511;54.242;12.448;2023-04-01T12:30:42;100483.56;;;4.19;91.74
18765;BME280;9511;54.242;12.448;2023-04-01T12:33:42;100486.72;;;4.12;90.91
18765;BME280;9511;54.242;12.448;2023-04-01T12:36:25;100500.78;;;4.14;90.92
18765;BME280;9511;54.242;12.448;2023-04-01T12:39:13;100504.53;;;4.19;90.87
18765;BME280;9511;54.242;12.448;2023-04-01T12:41:49;100514.75;;;4.14;90.47
18765;BME280;9511;54.242;12.448;2023-04-01T12:44:32;100502.84;;;4.02;90.14
18765;BME280;9511;54.242;12.448;2023-04-01T12:47:16;100510.97;;;4.08;90.34
18765;BME280;9511;54.242;12.448;2023-04-01T12:53:16;100515.00;;;4.01;90.68
18765;BME280;9511;54.242;12.448;2023-04-01T12:55:48;100531.22;;;3.94;90.23
18765;BME280;9511;54.242;12.448;2023-04-01T12:58:37;100529.22;;;3.88;90.18
18765;BME280;9511;54.242;12.448;2023-04-01T13:01:25;100530.81;;;3.85;89.97
18765;BME280;9511;54.242;12.448;2023-04-01T13:04:12;100529.31;;;3.72;89.72
18765;BME280;9511;54.242;12.448;2023-04-01T13:06:57;100544.88;;;3.69;89.68
18765;BME280;9511;54.242;12.448;2023-04-01T13:09:37;100546.19;;;3.61;89.71
18765;BME280;9511;54.242;12.448;2023-04-01T13:12:29;100550.94;;;3.68;89.60
18765;BME280;9511;54.242;12.448;2023-04-01T13:15:13;100552.84;;;3.72;89.63
18765;BME280;9511;54.242;12.448;2023-04-01T13:17:48;100562.81;;;3.79;89.66
18765;BME280;9511;54.242;12.448;2023-04-01T13:20:24;100563.25;;;3.88;89.75
18765;BME280;9511;54.242;12.448;2023-04-01T13:23:05;100564.00;;;3.86;89.38
18765;BME280;9511;54.242;12.448;2023-04-01T13:25:44;100569.66;;;3.77;88.54
18765;BME280;9511;54.242;12.448;2023-04-01T13:28:18;100583.03;;;3.83;88.14
18765;BME280;9511;54.242;12.448;2023-04-01T13:30:55;100586.50;;;3.82;88.20
18765;BME280;9511;54.242;12.448;2023-04-01T13:33:33;100579.31;;;3.78;87.55
18765;BME280;9511;54.242;12.448;2023-04-01T13:36:13;100583.88;;;3.82;87.91
18765;BME280;9511;54.242;12.448;2023-04-01T13:38:51;100596.34;;;3.70;87.84
18765;BME280;9511;54.242;12.448;2023-04-01T13:41:34;100598.72;;;3.65;87.87
18765;BME280;9511;54.242;12.448;2023-04-01T13:44:10;100615.19;;;3.63;87.71
18765;BME280;9511;54.242;12.448;2023-04-01T13:49:49;100614.34;;;3.64;88.06
18765;BME280;9511;54.242;12.448;2023-04-01T13:52:33;100609.47;;;3.54;88.11
18765;BME280;9511;54.242;12.448;2023-04-01T13:55:26;100625.66;;;3.63;88.08
18765;BME280;9511;54.242;12.448;2023-04-01T13:58:17;100632.34;;;3.58;88.55
18765;BME280;9511;54.242;12.448;2023-04-01T14:00:54;100635.66;;;3.37;88.53
18765;BME280;9511;54.242;12.448;2023-04-01T14:03:45;100632.84;;;3.33;88.26
18765;BME280;9511;54.242;12.448;2023-04-01T14:06:28;100639.28;;;3.39;88.73
18765;BME280;9511;54.242;12.448;2023-04-01T14:09:16;100648.91;;;3.40;88.63
18765;BME280;9511;54.242;12.448;2023-04-01T14:11:53;100644.00;;;3.46;88.80
18765;BME280;9511;54.242;12.448;2023-04-01T14:14:33;100648.91;;;3.40;88.70
18765;BME280;9511;54.242;12.448;2023-04-01T14:17:31;100648.59;;;3.34;88.77
18765;BME280;9511;54.242;12.448;2023-04-01T14:23:13;100658.41;;;3.22;89.14
18765;BME280;9511;54.242;12.448;2023-04-01T14:26:02;100657.19;;;3.15;88.87
18765;BME280;9511;54.242;12.448;2023-04-01T14:28:33;100657.97;;;3.14;88.63
18765;BME280;9511;54.242;12.448;2023-04-01T14:31:20;100659.69;;;3.14;89.10
18765;BME280;9511;54.242;12.448;2023-04-01T14:33:58;100664.94;;;3.14;88.96
18765;BME280;9511;54.242;12.448;2023-04-01T14:36:47;100673.59;;;3.13;88.85
18765;BME280;9511;54.242;12.448;2023-04-01T14:39:52;100673.25;;;3.07;88.50
18765;BME280;9511;54.242;12.448;2023-04-01T14:42:41;100679.63;;;3.12;88.76
18765;BME280;9511;54.242;12.448;2023-04-01T14:45:43;100676.28;;;3.14;88.74
18765;BME280;9511;54.242;12.448;2023-04-01T14:48:23;100686.97;;;3.19;88.84
18765;BME280;9511;54.242;12.448;2023-04-01T14:50:54;100691.06;;;3.14;88.51
18765;BME280;9511;54.242;12.448;2023-04-01T14:53:28;100699.78;;;3.14;88.20
18765;BME280;9511;54.242;12.448;2023-04-01T14:55:59;100701.69;;;3.17;87.99
18765;BME280;9511;54.242;12.448;2023-04-01T14:58:41;100703.63;;;3.21;87.48
18765;BME280;9511;54.242;12.448;2023-04-01T15:01:23;100708.84;;;3.21;87.36
18765;BME280;9511;54.242;12.448;2023-04-01T15:04:01;100705.19;;;3.17;87.39
18765;BME280;9511;54.242;12.448;2023-04-01T15:06:44;100710.34;;;3.16;87.55
18765;BME280;9511;54.242;12.448;2023-04-01T15:09:20;100714.84;;;3.18;87.43
18765;BME280;9511;54.242;12.448;2023-04-01T15:11:59;100715.91;;;3.22;87.30
18765;BME280;9511;54.242;12.448;2023-04-01T15:14:43;100721.72;;;3.33;87.84
18765;BME280;9511;54.242;12.448;2023-04-01T15:17:43;100731.59;;;3.22;87.05
18765;BME280;9511;54.242;12.448;2023-04-01T15:20:29;100729.44;;;3.15;87.08
18765;BME280;9511;54.242;12.448;2023-04-01T15:23:13;100733.63;;;3.11;86.75
18765;BME280;9511;54.242;12.448;2023-04-01T15:26:08;100738.94;;;3.13;86.61
18765;BME280;9511;54.242;12.448;2023-04-01T15:28:49;100745.34;;;3.03;86.17
18765;BME280;9511;54.242;12.448;2023-04-01T15:31:24;100750.59;;;3.03;86.13
18765;BME280;9511;54.242;12.448;2023-04-01T15:34:15;100765.63;;;3.07;86.47
18765;BME280;9511;54.242;12.448;2023-04-01T15:36:51;100750.75;;;3.06;86.49
18765;BME280;9511;54.242;12.448;2023-04-01T15:39:24;100758.69;;;3.08;86.36
18765;BME280;9511;54.242;12.448;2023-04-01T15:42:10;100765.31;;;3.17;87.02
18765;BME280;9511;54.242;12.448;2023-04-01T15:44:56;100770.81;;;3.22;87.03
18765;BME280;9511;54.242;12.448;2023-04-01T15:47:37;100764.44;;;3.17;86.26
18765;BME280;9511;54.242;12.448;2023-04-01T15:50:37;100780.47;;;3.08;85.58
18765;BME280;9511;54.242;12.448;2023-04-01T15:53:22;100778.53;;;3.04;85.11
18765;BME280;9511;54.242;12.448;2023-04-01T15:55:57;100786.59;;;3.09;84.59
18765;BME280;9511;54.242;12.448;2023-04-01T15:58:38;100794.44;;;3.09;84.25
18765;BME280;9511;54.242;12.448;2023-04-01T16:01:17;100803.56;;;3.15;83.99
18765;BME280;9511;54.242;12.448;2023-04-01T16:03:54;100807.34;;;3.06;83.52
18765;BME280;9511;54.242;12.448;2023-04-01T16:06:35;100820.72;;;2.96;83.03
18765;BME280;9511;54.242;12.448;2023-04-01T16:09:27;100812.81;;;2.94;82.83
18765;BME280;9511;54.242;12.448;2023-04-01T16:12:07;100819.97;;;2.98;82.75
18765;BME280;9511;54.242;12.448;2023-04-01T16:14:47;100821.53;;;2.95;82.37
18765;BME280;9511;54.242;12.448;2023-04-01T16:17:34;100823.19;;;2.92;82.11
18765;BME280;9511;54.242;12.448;2023-04-01T16:20:17;100825.13;;;2.97;81.29
18765;BME280;9511;54.242;12.448;2023-04-01T16:22:52;100834.69;;;2.96;81.96
18765;BME280;9511;54.242;12.448;2023-04-01T16:25:31;100836.41;;;2.96;81.68
18765;BME280;9511;54.242;12.448;2023-04-01T16:28:16;100850.00;;;2.90;81.57
18765;BME280;9511;54.242;12.448;2023-04-01T16:30:50;100843.41;;;2.97;81.61
18765;BME280;9511;54.242;12.448;2023-04-01T16:33:31;100851.44;;;3.00;81.54
18765;BME280;9511;54.242;12.448;2023-04-01T16:36:09;100854.06;;;3.00;81.92
18765;BME280;9511;54.242;12.448;2023-04-01T16:38:42;100860.66;;;2.93;82.21
18765;BME280;9511;54.242;12.448;2023-04-01T16:41:15;100858.75;;;2.90;82.55
18765;BME280;9511;54.242;12.448;2023-04-01T16:43:45;100864.88;;;2.91;82.46
18765;BME280;9511;54.242;12.448;2023-04-01T16:46:21;100863.34;;;2.95;82.80
18765;BME280;9511;54.242;12.448;2023-04-01T16:49:23;100880.53;;;2.91;83.08
18765;BME280;9511;54.242;12.448;2023-04-01T16:52:03;100879.72;;;2.92;82.80
18765;BME280;9511;54.242;12.448;2023-04-01T16:54:36;100880.28;;;2.86;82.83
18765;BME280;9511;54.242;12.448;2023-04-01T16:57:17;100895.88;;;2.85;82.93
18765;BME280;9511;54.242;12.448;2023-04-01T16:59:48;100905.06;;;2.78;82.90
18765;BME280;9511;54.242;12.448;2023-04-01T17:02:24;100904.44;;;2.82;83.34
18765;BME280;9511;54.242;12.448;2023-04-01T17:04:58;100914.53;;;2.76;83.41
18765;BME280;9511;54.242;12.448;2023-04-01T17:07:38;100911.22;;;2.64;82.36
18765;BME280;9511;54.242;12.448;2023-04-01T17:13:15;100911.00;;;2.61;82.33
18765;BME280;9511;54.242;12.448;2023-04-01T17:15:54;100910.03;;;2.59;82.46
18765;BME280;9511;54.242;12.448;2023-04-01T17:18:33;100929.09;;;2.58;82.81
18765;BME280;9511;54.242;12.448;2023-04-01T17:21:09;100917.06;;;2.60;83.40
18765;BME280;9511;54.242;12.448;2023-04-01T17:23:42;100949.00;;;2.56;83.55
18765;BME280;9511;54.242;12.448;2023-04-01T17:26:22;100939.81;;;2.48;83.24
18765;BME280;9511;54.242;12.448;2023-04-01T17:28:57;100959.59;;;2.44;82.79
18765;BME280;9511;54.242;12.448;2023-04-01T17:31:37;100959.44;;;2.41;82.57
18765;BME280;9511;54.242;12.448;2023-04-01T17:34:35;100965.56;;;2.42;82.39
18765;BME280;9511;54.242;12.448;2023-04-01T17:37:28;100970.78;;;2.42;82.81
18765;BME280;9511;54.242;12.448;2023-04-01T17:40:15;100971.56;;;2.40;82.98
18765;BME280;9511;54.242;12.448;2023-04-01T17:42:49;100972.00;;;2.33;83.04
18765;BME280;9511;54.242;12.448;2023-04-01T17:45:23;100980.56;;;2.31;83.13
18765;BME280;9511;54.242;12.448;2023-04-01T17:48:01;100984.06;;;2.31;83.33
18765;BME280;9511;54.242;12.448;2023-04-01T17:50:48;100994.06;;;2.24;83.42
18765;BME280;9511;54.242;12.448;2023-04-01T17:53:29;100996.53;;;2.22;83.42
18765;BME280;9511;54.242;12.448;2023-04-01T17:56:14;101001.38;;;2.16;83.75
18765;BME280;9511;54.242;12.448;2023-04-01T17:58:46;101009.94;;;2.13;83.82
18765;BME280;9511;54.242;12.448;2023-04-01T18:01:24;101013.53;;;2.16;83.90
18765;BME280;9511;54.242;12.448;2023-04-01T18:04:15;101014.44;;;2.16;84.17